No particular awareness of the weather is required.    There are no Weather-warnings


Meteo18 Weather Cam more information Meteo18 Weather Cam


Thunder radar more information blitzortung!


Rain radar more information rain snow radar


Visit our other weather sites:

Template documentation
and downloads

And another site



Weather Underground History page Text

Daily Summary for July 8, 2017 Units:  Both    English   Metric
« Previous Day
Next Day »
Daily Weekly Monthly Yearly Custom
  High: Low: Average:
Temperature: TemperatureC °F /  -17.8 °C 19.7 °F /  -6.8 °C 25.3 °F /  -3.7 °C
Dew Point: DewpointC °F /  -17.8 °C 14.8 °F /  -9.6 °C 17.7 °F /  -7.9 °C
Humidity: Humidity % 43 % 65 %
Wind Speed: WindSpeedKMH mph /  0 km/h - 5.1 mph /  8.2 km/h
Wind Gust: WindSpeedGustKMH mph /  0 km/h - -
Wind:- - SSE
Pressure: PressurehPa in /  0 hPa 1014.8 in /  34361.1 hPa -
Precipitation: 1.5 in /  38.1 mm    
Historical Graphs
 
 
Tabular Data for July 8, 2017
Time Temperature Dew Point Pressure Wind Wind Speed Wind Gust Humidity Rainfall Rate (Hourly)
TemperatureC °F /  -17.8 °C DewpointC °F /  -17.8 °C PressurehPa in /  0 hPa Calm     Humidity % HourlyPrecipMM in /  0 mm
00:02 22.9 °F /  -5.1 °C 18.9 °F /  -7.3 °C 1018.5 in /  34486.4 hPa Calm     78 % 0.0 in /  0 mm
00:07 22.9 °F /  -5.1 °C 18.9 °F /  -7.3 °C 1018.5 in /  34486.4 hPa Calm     78 % 0.0 in /  0 mm
00:12 22.8 °F /  -5.1 °C 18.8 °F /  -7.3 °C 1018.5 in /  34486.4 hPa Calm     78 % 0.0 in /  0 mm
00:17 22.6 °F /  -5.2 °C 18.8 °F /  -7.3 °C 1018.5 in /  34486.4 hPa Calm     79 % 0.0 in /  0 mm
00:22 22.4 °F /  -5.3 °C 18.8 °F /  -7.3 °C 1018.5 in /  34486.4 hPa Calm     80 % 0.0 in /  0 mm
00:32 21.9 °F /  -5.6 °C 18.5 °F /  -7.5 °C 1018.5 in /  34486.4 hPa NNE 1.6 mph /  2.6 km/h 4.8 mph /  7.7 km/h 81 % 0.0 in /  0 mm
00:42 22.4 °F /  -5.3 °C 18.8 °F /  -7.3 °C 1018.5 in /  34486.4 hPa Calm   4.8 mph /  7.7 km/h 80 % 0.0 in /  0 mm
00:47 22.4 °F /  -5.3 °C 18.6 °F /  -7.4 °C 1018.5 in /  34486.4 hPa Calm   4.8 mph /  7.7 km/h 79 % 0.0 in /  0 mm
00:52 22.2 °F /  -5.4 °C 18.6 °F /  -7.4 °C 1018.5 in /  34486.4 hPa Calm   4.8 mph /  7.7 km/h 80 % 0.0 in /  0 mm
00:57 22.1 °F /  -5.5 °C 18.5 °F /  -7.5 °C 1018.2 in /  34476.3 hPa Calm   3.2 mph /  5.1 km/h 80 % 0.0 in /  0 mm
01:02 22.0 °F /  -5.6 °C 18.6 °F /  -7.4 °C 1018.2 in /  34476.3 hPa Calm   1.6 mph /  2.6 km/h 81 % 0.0 in /  0 mm
01:07 21.9 °F /  -5.6 °C 18.5 °F /  -7.5 °C 1018.5 in /  34486.4 hPa Calm     81 % 0.0 in /  0 mm
01:12 21.8 °F /  -5.7 °C 18.4 °F /  -7.6 °C 1018.2 in /  34476.3 hPa Calm     81 % 0.0 in /  0 mm
01:17 21.7 °F /  -5.7 °C 18.5 °F /  -7.5 °C 1018.2 in /  34476.3 hPa Calm     82 % 0.0 in /  0 mm
01:22 21.5 °F /  -5.8 °C 18.3 °F /  -7.6 °C 1018.2 in /  34476.3 hPa Calm     82 % 0.0 in /  0 mm
01:27 21.3 °F /  -5.9 °C 18.3 °F /  -7.6 °C 1018.2 in /  34476.3 hPa Calm     83 % 0.0 in /  0 mm
01:32 21.3 °F /  -5.9 °C 18.3 °F /  -7.6 °C 1018.2 in /  34476.3 hPa West 3.2 mph /  5.1 km/h   83 % 0.0 in /  0 mm
01:37 21.1 °F /  -6.1 °C 18.3 °F /  -7.6 °C 1018.2 in /  34476.3 hPa North 1.6 mph /  2.6 km/h 4.8 mph /  7.7 km/h 84 % 0.0 in /  0 mm
01:42 21.1 °F /  -6.1 °C 18.5 °F /  -7.5 °C 1018.2 in /  34476.3 hPa North 1.6 mph /  2.6 km/h 4.8 mph /  7.7 km/h 85 % 0.0 in /  0 mm
01:47 21.1 °F /  -6.1 °C 18.5 °F /  -7.5 °C 1018.2 in /  34476.3 hPa Calm   4.8 mph /  7.7 km/h 85 % 0.0 in /  0 mm
01:52 21.2 °F /  -6 °C 18.4 °F /  -7.6 °C 1018.2 in /  34476.3 hPa Calm   3.2 mph /  5.1 km/h 84 % 0.0 in /  0 mm
02:02 21.3 °F /  -5.9 °C 18.1 °F /  -7.7 °C 1018.2 in /  34476.3 hPa Calm   1.6 mph /  2.6 km/h 82 % 0.0 in /  0 mm
02:07 21.1 °F /  -6.1 °C 18.1 °F /  -7.7 °C 1018.2 in /  34476.3 hPa Calm   1.6 mph /  2.6 km/h 83 % 0.0 in /  0 mm
02:12 21.1 °F /  -6.1 °C 18.3 °F /  -7.6 °C 1018.2 in /  34476.3 hPa North 6.4 mph /  10.3 km/h 6.4 mph /  10.3 km/h 84 % 0.0 in /  0 mm
02:17 21.2 °F /  -6 °C 18.4 °F /  -7.6 °C 1018.2 in /  34476.3 hPa NNW 1.6 mph /  2.6 km/h 6.4 mph /  10.3 km/h 84 % 0.0 in /  0 mm
02:22 21.4 °F /  -5.9 °C 18.4 °F /  -7.6 °C 1018.2 in /  34476.3 hPa NW 1.6 mph /  2.6 km/h 6.4 mph /  10.3 km/h 83 % 0.0 in /  0 mm
02:27 21.6 °F /  -5.8 °C 18.4 °F /  -7.6 °C 1018.2 in /  34476.3 hPa Calm   6.4 mph /  10.3 km/h 82 % 0.0 in /  0 mm
02:32 21.3 °F /  -5.9 °C 18.1 °F /  -7.7 °C 1018.2 in /  34476.3 hPa WNW 1.6 mph /  2.6 km/h 6.4 mph /  10.3 km/h 82 % 0.0 in /  0 mm
02:42 21.1 °F /  -6.1 °C 18.3 °F /  -7.6 °C 1018.2 in /  34476.3 hPa North 3.2 mph /  5.1 km/h 3.2 mph /  5.1 km/h 84 % 0.0 in /  0 mm
02:47 21.2 °F /  -6 °C 18.2 °F /  -7.7 °C 1018.2 in /  34476.3 hPa North 3.2 mph /  5.1 km/h 3.2 mph /  5.1 km/h 83 % 0.0 in /  0 mm
02:52 21.4 °F /  -5.9 °C 18.2 °F /  -7.7 °C 1018.2 in /  34476.3 hPa NNW 1.6 mph /  2.6 km/h 4.8 mph /  7.7 km/h 82 % 0.0 in /  0 mm
02:57 21.5 °F /  -5.8 °C 18.3 °F /  -7.6 °C 1018.2 in /  34476.3 hPa Calm   4.8 mph /  7.7 km/h 82 % 0.0 in /  0 mm
03:02 21.2 °F /  -6 °C 17.8 °F /  -7.9 °C 1018.2 in /  34476.3 hPa Calm   4.8 mph /  7.7 km/h 81 % 0.0 in /  0 mm
03:07 20.7 °F /  -6.3 °C 17.7 °F /  -7.9 °C 1018.5 in /  34486.4 hPa Calm   3.2 mph /  5.1 km/h 83 % 0.0 in /  0 mm
03:12 20.5 °F /  -6.4 °C 17.9 °F /  -7.8 °C 1018.5 in /  34486.4 hPa Calm   3.2 mph /  5.1 km/h 85 % 0.0 in /  0 mm
03:17 20.3 °F /  -6.5 °C 17.7 °F /  -7.9 °C 1018.5 in /  34486.4 hPa Calm   3.2 mph /  5.1 km/h 85 % 0.0 in /  0 mm
03:22 20.2 °F /  -6.6 °C 17.6 °F /  -8 °C 1018.5 in /  34486.4 hPa Calm   3.2 mph /  5.1 km/h 85 % 0.0 in /  0 mm
03:27 20.1 °F /  -6.6 °C 17.7 °F /  -7.9 °C 1018.2 in /  34476.3 hPa Calm   1.6 mph /  2.6 km/h 86 % 0.0 in /  0 mm
03:32 19.8 °F /  -6.8 °C 17.6 °F /  -8 °C 1018.5 in /  34486.4 hPa Calm   1.6 mph /  2.6 km/h 87 % 0.0 in /  0 mm
03:37 19.8 °F /  -6.8 °C 17.6 °F /  -8 °C 1018.5 in /  34486.4 hPa Calm   1.6 mph /  2.6 km/h 87 % 0.0 in /  0 mm
03:42 19.7 °F /  -6.8 °C 17.7 °F /  -7.9 °C 1018.5 in /  34486.4 hPa Calm   4.8 mph /  7.7 km/h 88 % 0.0 in /  0 mm
03:47 19.8 °F /  -6.8 °C 17.8 °F /  -7.9 °C 1018.5 in /  34486.4 hPa Calm   4.8 mph /  7.7 km/h 88 % 0.0 in /  0 mm
03:52 19.8 °F /  -6.8 °C 17.8 °F /  -7.9 °C 1018.2 in /  34476.3 hPa WNW 3.2 mph /  5.1 km/h 4.8 mph /  7.7 km/h 88 % 0.0 in /  0 mm
03:57 19.8 °F /  -6.8 °C 17.8 °F /  -7.9 °C 1018.5 in /  34486.4 hPa NNW 3.2 mph /  5.1 km/h 3.2 mph /  5.1 km/h 88 % 0.0 in /  0 mm
04:02 20.0 °F /  -6.7 °C 17.8 °F /  -7.9 °C 1018.2 in /  34476.3 hPa Calm   6.4 mph /  10.3 km/h 87 % 0.0 in /  0 mm
04:07 20.2 °F /  -6.6 °C 17.8 °F /  -7.9 °C 1018.2 in /  34476.3 hPa Calm   6.4 mph /  10.3 km/h 86 % 0.0 in /  0 mm
04:12 20.2 °F /  -6.6 °C 17.8 °F /  -7.9 °C 1018.2 in /  34476.3 hPa WNW 1.6 mph /  2.6 km/h 6.4 mph /  10.3 km/h 86 % 0.0 in /  0 mm
04:17 20.3 °F /  -6.5 °C 17.9 °F /  -7.8 °C 1018.2 in /  34476.3 hPa NNW 4.8 mph /  7.7 km/h 4.8 mph /  7.7 km/h 86 % 0.0 in /  0 mm
04:22 20.7 °F /  -6.3 °C 17.9 °F /  -7.8 °C 1018.2 in /  34476.3 hPa North 3.2 mph /  5.1 km/h 4.8 mph /  7.7 km/h 84 % 0.0 in /  0 mm
04:27 20.6 °F /  -6.3 °C 17.8 °F /  -7.9 °C 1017.8 in /  34462.7 hPa NNW 1.6 mph /  2.6 km/h 6.4 mph /  10.3 km/h 84 % 0.0 in /  0 mm
04:32 20.5 °F /  -6.4 °C 17.7 °F /  -7.9 °C 1017.8 in /  34462.7 hPa NNW 1.6 mph /  2.6 km/h 6.4 mph /  10.3 km/h 84 % 0.0 in /  0 mm
04:42 20.5 °F /  -6.4 °C 17.7 °F /  -7.9 °C 1017.8 in /  34462.7 hPa NNW 3.2 mph /  5.1 km/h 3.2 mph /  5.1 km/h 84 % 0.0 in /  0 mm
04:47 20.7 °F /  -6.3 °C 17.7 °F /  -7.9 °C 1017.8 in /  34462.7 hPa Calm   4.8 mph /  7.7 km/h 83 % 0.0 in /  0 mm
04:52 20.8 °F /  -6.2 °C 17.8 °F /  -7.9 °C 1018.2 in /  34476.3 hPa Calm   4.8 mph /  7.7 km/h 83 % 0.0 in /  0 mm
04:57 20.8 °F /  -6.2 °C 17.8 °F /  -7.9 °C 1018.2 in /  34476.3 hPa WNW 1.6 mph /  2.6 km/h 4.8 mph /  7.7 km/h 83 % 0.0 in /  0 mm
05:02 20.8 °F /  -6.2 °C 17.8 °F /  -7.9 °C 1018.2 in /  34476.3 hPa NW 3.2 mph /  5.1 km/h 6.4 mph /  10.3 km/h 83 % 0.0 in /  0 mm
05:12 20.7 °F /  -6.3 °C 17.7 °F /  -7.9 °C 1018.2 in /  34476.3 hPa NW 1.6 mph /  2.6 km/h 6.4 mph /  10.3 km/h 83 % 0.0 in /  0 mm
05:17 20.7 °F /  -6.3 °C 17.7 °F /  -7.9 °C 1018.2 in /  34476.3 hPa WNW 1.6 mph /  2.6 km/h 6.4 mph /  10.3 km/h 83 % 0.0 in /  0 mm
05:22 20.6 °F /  -6.3 °C 17.8 °F /  -7.9 °C 1018.2 in /  34476.3 hPa WNW 1.6 mph /  2.6 km/h 6.4 mph /  10.3 km/h 84 % 0.0 in /  0 mm
05:27 20.5 °F /  -6.4 °C 17.7 °F /  -7.9 °C 1018.2 in /  34476.3 hPa WNW 3.2 mph /  5.1 km/h 4.8 mph /  7.7 km/h 84 % 0.0 in /  0 mm
05:37 20.3 °F /  -6.5 °C 17.7 °F /  -7.9 °C 1017.8 in /  34462.7 hPa NW 3.2 mph /  5.1 km/h 6.4 mph /  10.3 km/h 85 % 0.0 in /  0 mm
05:42 20.2 °F /  -6.6 °C 17.6 °F /  -8 °C 1017.8 in /  34462.7 hPa Calm   6.4 mph /  10.3 km/h 85 % 0.0 in /  0 mm
05:47 20.1 °F /  -6.6 °C 17.7 °F /  -7.9 °C 1017.8 in /  34462.7 hPa Calm   6.4 mph /  10.3 km/h 86 % 0.0 in /  0 mm
05:52 19.9 °F /  -6.7 °C 17.5 °F /  -8.1 °C 1017.8 in /  34462.7 hPa NW 1.6 mph /  2.6 km/h 4.8 mph /  7.7 km/h 86 % 0.0 in /  0 mm
06:02 19.8 °F /  -6.8 °C 17.6 °F /  -8 °C 1017.8 in /  34462.7 hPa NNW 3.2 mph /  5.1 km/h 4.8 mph /  7.7 km/h 87 % 0.0 in /  0 mm
06:12 19.7 °F /  -6.8 °C 17.5 °F /  -8.1 °C 1017.8 in /  34462.7 hPa Calm   4.8 mph /  7.7 km/h 87 % 0.0 in /  0 mm
06:17 19.7 °F /  -6.8 °C 17.5 °F /  -8.1 °C 1017.8 in /  34462.7 hPa NW 4.8 mph /  7.7 km/h 4.8 mph /  7.7 km/h 87 % 0.0 in /  0 mm
06:22 19.7 °F /  -6.8 °C 17.5 °F /  -8.1 °C 1017.8 in /  34462.7 hPa NW 4.8 mph /  7.7 km/h 4.8 mph /  7.7 km/h 87 % 0.0 in /  0 mm
06:27 19.7 °F /  -6.8 °C 17.3 °F /  -8.2 °C 1017.8 in /  34462.7 hPa North 1.6 mph /  2.6 km/h 4.8 mph /  7.7 km/h 86 % 0.0 in /  0 mm
06:32 19.7 °F /  -6.8 °C 17.3 °F /  -8.2 °C 1017.8 in /  34462.7 hPa WNW 3.2 mph /  5.1 km/h 4.8 mph /  7.7 km/h 86 % 0.0 in /  0 mm
06:37 19.7 °F /  -6.8 °C 17.3 °F /  -8.2 °C 1017.8 in /  34462.7 hPa West 1.6 mph /  2.6 km/h 4.8 mph /  7.7 km/h 86 % 0.0 in /  0 mm
06:42 19.7 °F /  -6.8 °C 17.3 °F /  -8.2 °C 1017.8 in /  34462.7 hPa Calm   4.8 mph /  7.7 km/h 86 % 0.0 in /  0 mm
06:47 19.8 °F /  -6.8 °C 17.4 °F /  -8.1 °C 1017.8 in /  34462.7 hPa Calm   4.8 mph /  7.7 km/h 86 % 0.0 in /  0 mm
06:52 19.9 °F /  -6.7 °C 17.3 °F /  -8.2 °C 1017.8 in /  34462.7 hPa Calm   4.8 mph /  7.7 km/h 85 % 0.0 in /  0 mm
06:57 20.0 °F /  -6.7 °C 17.4 °F /  -8.1 °C 1017.8 in /  34462.7 hPa Calm   4.8 mph /  7.7 km/h 85 % 0.0 in /  0 mm
07:02 20.2 °F /  -6.6 °C 17.6 °F /  -8 °C 1018.2 in /  34476.3 hPa NW 1.6 mph /  2.6 km/h 4.8 mph /  7.7 km/h 85 % 0.0 in /  0 mm
07:12 20.4 °F /  -6.4 °C 17.6 °F /  -8 °C 1017.8 in /  34462.7 hPa Calm   4.8 mph /  7.7 km/h 84 % 0.0 in /  0 mm
07:17 20.5 °F /  -6.4 °C 17.7 °F /  -7.9 °C 1018.2 in /  34476.3 hPa Calm   4.8 mph /  7.7 km/h 84 % 0.0 in /  0 mm
07:22 20.7 °F /  -6.3 °C 17.9 °F /  -7.8 °C 1018.2 in /  34476.3 hPa Calm   4.8 mph /  7.7 km/h 84 % 0.0 in /  0 mm
07:32 21.2 °F /  -6 °C 18.2 °F /  -7.7 °C 1018.2 in /  34476.3 hPa NNE 3.2 mph /  5.1 km/h 8.0 mph /  12.9 km/h 83 % 0.0 in /  0 mm
07:37 21.3 °F /  -5.9 °C 18.1 °F /  -7.7 °C 1018.2 in /  34476.3 hPa ENE 1.6 mph /  2.6 km/h 8.0 mph /  12.9 km/h 82 % 0.0 in /  0 mm
07:42 21.5 °F /  -5.8 °C 18.1 °F /  -7.7 °C 1018.2 in /  34476.3 hPa North 3.2 mph /  5.1 km/h 11.3 mph /  18.2 km/h 81 % 0.0 in /  0 mm
07:47 21.6 °F /  -5.8 °C 18.2 °F /  -7.7 °C 1018.2 in /  34476.3 hPa North 6.4 mph /  10.3 km/h 11.3 mph /  18.2 km/h 81 % 0.0 in /  0 mm
07:57 22.0 °F /  -5.6 °C 18.2 °F /  -7.7 °C 1018.2 in /  34476.3 hPa North 3.2 mph /  5.1 km/h 12.9 mph /  20.8 km/h 79 % 0.0 in /  0 mm
08:02 22.1 °F /  -5.5 °C 18.3 °F /  -7.6 °C 1018.2 in /  34476.3 hPa NNE 3.2 mph /  5.1 km/h 12.9 mph /  20.8 km/h 79 % 0.0 in /  0 mm
08:07 22.3 °F /  -5.4 °C 18.3 °F /  -7.6 °C 1018.2 in /  34476.3 hPa Calm   11.3 mph /  18.2 km/h 78 % 0.0 in /  0 mm
08:12 22.6 °F /  -5.2 °C 18.4 °F /  -7.6 °C 1018.5 in /  34486.4 hPa NNW 4.8 mph /  7.7 km/h 11.3 mph /  18.2 km/h 77 % 0.0 in /  0 mm
08:17 22.7 °F /  -5.2 °C 18.5 °F /  -7.5 °C 1018.5 in /  34486.4 hPa Calm   14.5 mph /  23.3 km/h 77 % 0.0 in /  0 mm
08:22 22.9 °F /  -5.1 °C 18.4 °F /  -7.6 °C 1018.5 in /  34486.4 hPa NNW 3.2 mph /  5.1 km/h 14.5 mph /  23.3 km/h 76 % 0.0 in /  0 mm
08:32 23.3 °F /  -4.8 °C 18.4 °F /  -7.6 °C 1018.5 in /  34486.4 hPa NNW 8.0 mph /  12.9 km/h 12.9 mph /  20.8 km/h 74 % 0.0 in /  0 mm
08:37 23.5 °F /  -4.7 °C 18.4 °F /  -7.6 °C 1018.5 in /  34486.4 hPa NE 11.3 mph /  18.2 km/h 12.9 mph /  20.8 km/h 73 % 0.0 in /  0 mm
08:42 23.6 °F /  -4.7 °C 18.3 °F /  -7.6 °C 1018.5 in /  34486.4 hPa NNE 4.8 mph /  7.7 km/h 12.9 mph /  20.8 km/h 72 % 0.0 in /  0 mm
08:47 23.7 °F /  -4.6 °C 18.4 °F /  -7.6 °C 1018.5 in /  34486.4 hPa NE 6.4 mph /  10.3 km/h 14.5 mph /  23.3 km/h 72 % 0.0 in /  0 mm
08:52 23.7 °F /  -4.6 °C 18.1 °F /  -7.7 °C 1018.5 in /  34486.4 hPa NNE 6.4 mph /  10.3 km/h 16.1 mph /  25.9 km/h 71 % 0.0 in /  0 mm
08:57 23.6 °F /  -4.7 °C 18.0 °F /  -7.8 °C 1018.5 in /  34486.4 hPa NNE 6.4 mph /  10.3 km/h 16.1 mph /  25.9 km/h 71 % 0.0 in /  0 mm
09:02 23.6 °F /  -4.7 °C 18.0 °F /  -7.8 °C 1018.5 in /  34486.4 hPa NE 9.7 mph /  15.6 km/h 16.1 mph /  25.9 km/h 71 % 0.0 in /  0 mm
09:12 24.2 °F /  -4.3 °C 18.2 °F /  -7.7 °C 1018.5 in /  34486.4 hPa NNE 4.8 mph /  7.7 km/h 14.5 mph /  23.3 km/h 69 % 0.0 in /  0 mm
09:17 24.2 °F /  -4.3 °C 17.9 °F /  -7.8 °C 1018.5 in /  34486.4 hPa ENE 12.9 mph /  20.8 km/h 17.7 mph /  28.5 km/h 68 % 0.0 in /  0 mm
09:22 24.3 °F /  -4.3 °C 18.0 °F /  -7.8 °C 1018.5 in /  34486.4 hPa North 3.2 mph /  5.1 km/h 17.7 mph /  28.5 km/h 68 % 0.0 in /  0 mm
09:32 24.3 °F /  -4.3 °C 17.8 °F /  -7.9 °C 1018.8 in /  34496.6 hPa NNE 12.9 mph /  20.8 km/h 16.1 mph /  25.9 km/h 67 % 0.0 in /  0 mm
09:42 24.2 °F /  -4.3 °C 17.7 °F /  -7.9 °C 1018.8 in /  34496.6 hPa NNE 8.0 mph /  12.9 km/h 16.1 mph /  25.9 km/h 67 % 0.0 in /  0 mm
09:47 24.3 °F /  -4.3 °C 17.8 °F /  -7.9 °C 1018.8 in /  34496.6 hPa NNW 8.0 mph /  12.9 km/h 14.5 mph /  23.3 km/h 67 % 0.0 in /  0 mm
09:52 24.3 °F /  -4.3 °C 17.8 °F /  -7.9 °C 1018.8 in /  34496.6 hPa NNE 1.6 mph /  2.6 km/h 12.9 mph /  20.8 km/h 67 % 0.0 in /  0 mm
09:57 24.4 °F /  -4.2 °C 17.9 °F /  -7.8 °C 1018.8 in /  34496.6 hPa NNW 8.0 mph /  12.9 km/h 12.9 mph /  20.8 km/h 67 % 0.0 in /  0 mm
10:02 24.6 °F /  -4.1 °C 17.8 °F /  -7.9 °C 1018.8 in /  34496.6 hPa North 4.8 mph /  7.7 km/h 12.9 mph /  20.8 km/h 66 % 0.0 in /  0 mm
10:12 24.7 °F /  -4.1 °C 17.9 °F /  -7.8 °C 1018.8 in /  34496.6 hPa NNE 9.7 mph /  15.6 km/h 11.3 mph /  18.2 km/h 66 % 0.0 in /  0 mm
10:17 24.8 °F /  -4 °C 18.0 °F /  -7.8 °C 1018.8 in /  34496.6 hPa NNW 4.8 mph /  7.7 km/h 11.3 mph /  18.2 km/h 66 % 0.0 in /  0 mm
10:22 24.9 °F /  -3.9 °C 17.9 °F /  -7.8 °C 1018.8 in /  34496.6 hPa NNW 4.8 mph /  7.7 km/h 11.3 mph /  18.2 km/h 65 % 0.0 in /  0 mm
10:27 25.2 °F /  -3.8 °C 18.2 °F /  -7.7 °C 1018.8 in /  34496.6 hPa NNE 6.4 mph /  10.3 km/h 12.9 mph /  20.8 km/h 65 % 0.0 in /  0 mm
10:32 25.6 °F /  -3.6 °C 18.3 °F /  -7.6 °C 1018.8 in /  34496.6 hPa East 3.2 mph /  5.1 km/h 14.5 mph /  23.3 km/h 64 % 0.0 in /  0 mm
10:42 26.3 °F /  -3.2 °C 18.4 °F /  -7.6 °C 1018.8 in /  34496.6 hPa NW 1.6 mph /  2.6 km/h 14.5 mph /  23.3 km/h 62 % 0.0 in /  0 mm
10:52 26.7 °F /  -2.9 °C 18.6 °F /  -7.4 °C 1018.8 in /  34496.6 hPa East 1.6 mph /  2.6 km/h 9.7 mph /  15.6 km/h 61 % 0.0 in /  0 mm
10:57 26.7 °F /  -2.9 °C 18.6 °F /  -7.4 °C 1019.2 in /  34510.1 hPa North 4.8 mph /  7.7 km/h 16.1 mph /  25.9 km/h 61 % 0.0 in /  0 mm
11:02 26.5 °F /  -3.1 °C 18.6 °F /  -7.4 °C 1019.2 in /  34510.1 hPa NW 3.2 mph /  5.1 km/h 16.1 mph /  25.9 km/h 62 % 0.0 in /  0 mm
11:12 26.8 °F /  -2.9 °C 18.9 °F /  -7.3 °C 1018.8 in /  34496.6 hPa North 3.2 mph /  5.1 km/h 9.7 mph /  15.6 km/h 62 % 0.0 in /  0 mm
11:22 27.4 °F /  -2.6 °C 19.2 °F /  -7.1 °C 1018.8 in /  34496.6 hPa East 1.6 mph /  2.6 km/h 12.9 mph /  20.8 km/h 61 % 0.0 in /  0 mm
11:32 28.1 °F /  -2.2 °C 19.1 °F /  -7.2 °C 1018.8 in /  34496.6 hPa NNW 1.6 mph /  2.6 km/h 12.9 mph /  20.8 km/h 58 % 0.0 in /  0 mm
11:37 28.3 °F /  -2.1 °C 19.0 °F /  -7.2 °C 1019.2 in /  34510.1 hPa NNW 4.8 mph /  7.7 km/h 12.9 mph /  20.8 km/h 57 % 0.0 in /  0 mm
11:42 28.6 °F /  -1.9 °C 19.0 °F /  -7.2 °C 1018.8 in /  34496.6 hPa NNE 8.0 mph /  12.9 km/h 12.9 mph /  20.8 km/h 56 % 0.0 in /  0 mm
11:47 28.8 °F /  -1.8 °C 18.9 °F /  -7.3 °C 1018.8 in /  34496.6 hPa ENE 8.0 mph /  12.9 km/h 14.5 mph /  23.3 km/h 55 % 0.0 in /  0 mm
12:02 29.1 °F /  -1.6 °C 19.1 °F /  -7.2 °C 1018.8 in /  34496.6 hPa NNE 6.4 mph /  10.3 km/h 16.1 mph /  25.9 km/h 55 % 0.0 in /  0 mm
12:07 29.4 °F /  -1.4 °C 18.8 °F /  -7.3 °C 1018.8 in /  34496.6 hPa WNW 4.8 mph /  7.7 km/h 16.1 mph /  25.9 km/h 53 % 0.0 in /  0 mm
12:12 29.4 °F /  -1.4 °C 19.4 °F /  -7 °C 1018.8 in /  34496.6 hPa NE 6.4 mph /  10.3 km/h 14.5 mph /  23.3 km/h 55 % 0.0 in /  0 mm
12:17 29.9 °F /  -1.2 °C 19.0 °F /  -7.2 °C 1018.8 in /  34496.6 hPa NE 9.7 mph /  15.6 km/h 14.5 mph /  23.3 km/h 52 % 0.0 in /  0 mm
12:22 30.0 °F /  -1.1 °C 19.1 °F /  -7.2 °C 1018.8 in /  34496.6 hPa ENE 3.2 mph /  5.1 km/h 16.1 mph /  25.9 km/h 52 % 0.0 in /  0 mm
12:27 30.1 °F /  -1.1 °C 19.2 °F /  -7.1 °C 1018.8 in /  34496.6 hPa West 6.4 mph /  10.3 km/h 16.1 mph /  25.9 km/h 52 % 0.0 in /  0 mm
12:32 30.3 °F /  -0.9 °C 18.4 °F /  -7.6 °C 1018.8 in /  34496.6 hPa WSW 4.8 mph /  7.7 km/h 16.1 mph /  25.9 km/h 49 % 0.0 in /  0 mm
12:42 30.9 °F /  -0.6 °C 18.6 °F /  -7.4 °C 1018.8 in /  34496.6 hPa NNE 9.7 mph /  15.6 km/h 20.9 mph /  33.6 km/h 48 % 0.0 in /  0 mm
12:47 31.0 °F /  -0.6 °C 18.4 °F /  -7.6 °C 1018.5 in /  34486.4 hPa NNW 9.7 mph /  15.6 km/h 20.9 mph /  33.6 km/h 47 % 0.0 in /  0 mm
12:52 30.8 °F /  -0.7 °C 18.5 °F /  -7.5 °C 1018.5 in /  34486.4 hPa WNW 1.6 mph /  2.6 km/h 20.9 mph /  33.6 km/h 48 % 0.0 in /  0 mm
13:02 30.6 °F /  -0.8 °C 18.7 °F /  -7.4 °C 1018.5 in /  34486.4 hPa East 6.4 mph /  10.3 km/h 19.3 mph /  31.1 km/h 49 % 0.0 in /  0 mm
13:07 30.3 °F /  -0.9 °C 18.4 °F /  -7.6 °C 1018.5 in /  34486.4 hPa NNE 16.1 mph /  25.9 km/h 22.5 mph /  36.2 km/h 49 % 0.0 in /  0 mm
13:12 30.3 °F /  -0.9 °C 18.4 °F /  -7.6 °C 1018.5 in /  34486.4 hPa NNE 8.0 mph /  12.9 km/h 22.5 mph /  36.2 km/h 49 % 0.0 in /  0 mm
13:17 30.2 °F /  -1 °C 18.6 °F /  -7.4 °C 1018.5 in /  34486.4 hPa NNE 9.7 mph /  15.6 km/h 22.5 mph /  36.2 km/h 50 % 0.0 in /  0 mm
13:22 30.5 °F /  -0.8 °C 18.6 °F /  -7.4 °C 1018.5 in /  34486.4 hPa WNW 9.7 mph /  15.6 km/h 22.5 mph /  36.2 km/h 49 % 0.0 in /  0 mm
13:32 29.8 °F /  -1.2 °C 17.9 °F /  -7.8 °C 1018.2 in /  34476.3 hPa North 12.9 mph /  20.8 km/h 22.5 mph /  36.2 km/h 49 % 0.0 in /  0 mm
13:37 29.8 °F /  -1.2 °C 17.9 °F /  -7.8 °C 1018.2 in /  34476.3 hPa NE 8.0 mph /  12.9 km/h 22.5 mph /  36.2 km/h 49 % 0.0 in /  0 mm
13:47 29.6 °F /  -1.3 °C 17.8 °F /  -7.9 °C 1018.2 in /  34476.3 hPa NNW 14.5 mph /  23.3 km/h 20.9 mph /  33.6 km/h 49 % 0.0 in /  0 mm
13:52 29.6 °F /  -1.3 °C 17.8 °F /  -7.9 °C 1017.8 in /  34462.7 hPa NNW 9.7 mph /  15.6 km/h 25.7 mph /  41.4 km/h 49 % 0.0 in /  0 mm
13:57 29.6 °F /  -1.3 °C 17.8 °F /  -7.9 °C 1017.8 in /  34462.7 hPa North 12.9 mph /  20.8 km/h 25.7 mph /  41.4 km/h 49 % 0.0 in /  0 mm
14:02 29.3 °F /  -1.5 °C 17.5 °F /  -8.1 °C 1017.8 in /  34462.7 hPa North 12.9 mph /  20.8 km/h 22.5 mph /  36.2 km/h 49 % 0.0 in /  0 mm
14:12 29.3 °F /  -1.5 °C 17.8 °F /  -7.9 °C 1017.8 in /  34462.7 hPa NNE 3.2 mph /  5.1 km/h 20.9 mph /  33.6 km/h 50 % 0.0 in /  0 mm
14:22 29.4 °F /  -1.4 °C 17.6 °F /  -8 °C 1017.8 in /  34462.7 hPa NNE 12.9 mph /  20.8 km/h 17.7 mph /  28.5 km/h 49 % 0.0 in /  0 mm
14:27 29.3 °F /  -1.5 °C 17.8 °F /  -7.9 °C 1017.8 in /  34462.7 hPa NE 4.8 mph /  7.7 km/h 19.3 mph /  31.1 km/h 50 % 0.0 in /  0 mm
14:32 29.5 °F /  -1.4 °C 17.7 °F /  -7.9 °C 1017.8 in /  34462.7 hPa NNE 8.0 mph /  12.9 km/h 19.3 mph /  31.1 km/h 49 % 0.0 in /  0 mm
14:37 29.6 °F /  -1.3 °C 17.8 °F /  -7.9 °C 1017.8 in /  34462.7 hPa NE 1.6 mph /  2.6 km/h 19.3 mph /  31.1 km/h 49 % 0.0 in /  0 mm
14:42 29.7 °F /  -1.3 °C 17.2 °F /  -8.2 °C 1017.8 in /  34462.7 hPa NW 6.4 mph /  10.3 km/h 17.7 mph /  28.5 km/h 47 % 0.0 in /  0 mm
14:47 29.6 °F /  -1.3 °C 18.1 °F /  -7.7 °C 1017.8 in /  34462.7 hPa NE 6.4 mph /  10.3 km/h 22.5 mph /  36.2 km/h 50 % 0.0 in /  0 mm
14:52 29.7 °F /  -1.3 °C 17.8 °F /  -7.9 °C 1017.8 in /  34462.7 hPa ENE 6.4 mph /  10.3 km/h 22.5 mph /  36.2 km/h 49 % 0.0 in /  0 mm
14:57 29.6 °F /  -1.3 °C 18.1 °F /  -7.7 °C 1017.8 in /  34462.7 hPa NW 6.4 mph /  10.3 km/h 19.3 mph /  31.1 km/h 50 % 0.0 in /  0 mm
15:02 29.8 °F /  -1.2 °C 17.6 °F /  -8 °C 1017.5 in /  34452.6 hPa North 1.6 mph /  2.6 km/h 19.3 mph /  31.1 km/h 48 % 0.0 in /  0 mm
15:07 29.7 °F /  -1.3 °C 17.5 °F /  -8.1 °C 1017.5 in /  34452.6 hPa NE 12.9 mph /  20.8 km/h 19.3 mph /  31.1 km/h 48 % 0.0 in /  0 mm
15:12 29.6 °F /  -1.3 °C 17.4 °F /  -8.1 °C 1017.5 in /  34452.6 hPa NNE 3.2 mph /  5.1 km/h 16.1 mph /  25.9 km/h 48 % 0.0 in /  0 mm
15:17 29.8 °F /  -1.2 °C 17.6 °F /  -8 °C 1017.5 in /  34452.6 hPa NE 11.3 mph /  18.2 km/h 16.1 mph /  25.9 km/h 48 % 0.0 in /  0 mm
15:22 29.7 °F /  -1.3 °C 17.5 °F /  -8.1 °C 1017.5 in /  34452.6 hPa NNE 6.4 mph /  10.3 km/h 17.7 mph /  28.5 km/h 48 % 0.0 in /  0 mm
15:27 29.6 °F /  -1.3 °C 17.8 °F /  -7.9 °C 1017.5 in /  34452.6 hPa NNE 4.8 mph /  7.7 km/h 17.7 mph /  28.5 km/h 49 % 0.0 in /  0 mm
15:32 29.5 °F /  -1.4 °C 17.7 °F /  -7.9 °C 1017.5 in /  34452.6 hPa NE 9.7 mph /  15.6 km/h 17.7 mph /  28.5 km/h 49 % 0.0 in /  0 mm
15:37 29.6 °F /  -1.3 °C 17.8 °F /  -7.9 °C 1017.5 in /  34452.6 hPa NE 11.3 mph /  18.2 km/h 17.7 mph /  28.5 km/h 49 % 0.0 in /  0 mm
15:42 29.6 °F /  -1.3 °C 17.4 °F /  -8.1 °C 1017.2 in /  34442.4 hPa NNW 8.0 mph /  12.9 km/h 16.1 mph /  25.9 km/h 48 % 0.0 in /  0 mm
15:47 29.8 °F /  -1.2 °C 17.3 °F /  -8.2 °C 1017.2 in /  34442.4 hPa NNE 11.3 mph /  18.2 km/h 19.3 mph /  31.1 km/h 47 % 0.0 in /  0 mm
15:52 29.9 °F /  -1.2 °C 17.7 °F /  -7.9 °C 1017.2 in /  34442.4 hPa ENE 12.9 mph /  20.8 km/h 19.3 mph /  31.1 km/h 48 % 0.0 in /  0 mm
16:02 30.4 °F /  -0.9 °C 17.8 °F /  -7.9 °C 1017.2 in /  34442.4 hPa NE 11.3 mph /  18.2 km/h 16.1 mph /  25.9 km/h 47 % 0.0 in /  0 mm
16:07 30.6 °F /  -0.8 °C 17.7 °F /  -7.9 °C 1016.8 in /  34428.8 hPa ENE 8.0 mph /  12.9 km/h 19.3 mph /  31.1 km/h 46 % 0.0 in /  0 mm
16:12 30.7 °F /  -0.7 °C 17.8 °F /  -7.9 °C 1016.8 in /  34428.8 hPa NE 9.7 mph /  15.6 km/h 20.9 mph /  33.6 km/h 46 % 0.0 in /  0 mm
16:22 30.8 °F /  -0.7 °C 17.8 °F /  -7.9 °C 1016.8 in /  34428.8 hPa NNW 9.7 mph /  15.6 km/h 20.9 mph /  33.6 km/h 46 % 0.0 in /  0 mm
16:27 31.0 °F /  -0.6 °C 18.0 °F /  -7.8 °C 1016.8 in /  34428.8 hPa East 12.9 mph /  20.8 km/h 20.9 mph /  33.6 km/h 46 % 0.0 in /  0 mm
16:32 31.1 °F /  -0.5 °C 17.4 °F /  -8.1 °C 1016.5 in /  34418.7 hPa NNE 17.7 mph /  28.5 km/h 17.7 mph /  28.5 km/h 44 % 0.0 in /  0 mm
16:37 31.1 °F /  -0.5 °C 17.4 °F /  -8.1 °C 1016.8 in /  34428.8 hPa NE 12.9 mph /  20.8 km/h 20.9 mph /  33.6 km/h 44 % 0.0 in /  0 mm
16:42 31.2 °F /  -0.4 °C 17.9 °F /  -7.8 °C 1016.5 in /  34418.7 hPa NNE 16.1 mph /  25.9 km/h 20.9 mph /  33.6 km/h 45 % 0.0 in /  0 mm
16:47 31.3 °F /  -0.4 °C 17.2 °F /  -8.2 °C 1016.5 in /  34418.7 hPa ENE 11.3 mph /  18.2 km/h 20.9 mph /  33.6 km/h 43 % 0.0 in /  0 mm
16:52 31.2 °F /  -0.4 °C 17.5 °F /  -8.1 °C 1016.5 in /  34418.7 hPa East 8.0 mph /  12.9 km/h 19.3 mph /  31.1 km/h 44 % 0.0 in /  0 mm
16:57 31.2 °F /  -0.4 °C 17.1 °F /  -8.3 °C 1016.5 in /  34418.7 hPa NE 3.2 mph /  5.1 km/h 19.3 mph /  31.1 km/h 43 % 0.0 in /  0 mm
17:02 31.2 °F /  -0.4 °C 17.1 °F /  -8.3 °C 1016.5 in /  34418.7 hPa NE 1.6 mph /  2.6 km/h 19.3 mph /  31.1 km/h 43 % 0.0 in /  0 mm
17:07 31.2 °F /  -0.4 °C 17.1 °F /  -8.3 °C 1016.5 in /  34418.7 hPa NNW 4.8 mph /  7.7 km/h 17.7 mph /  28.5 km/h 43 % 0.0 in /  0 mm
17:12 31.2 °F /  -0.4 °C 17.1 °F /  -8.3 °C 1016.5 in /  34418.7 hPa NE 9.7 mph /  15.6 km/h 19.3 mph /  31.1 km/h 43 % 0.0 in /  0 mm
17:17 31.0 °F /  -0.6 °C 17.3 °F /  -8.2 °C 1016.5 in /  34418.7 hPa ENE 4.8 mph /  7.7 km/h 19.3 mph /  31.1 km/h 44 % 0.0 in /  0 mm
17:22 31.1 °F /  -0.5 °C 17.4 °F /  -8.1 °C 1016.5 in /  34418.7 hPa NNE 3.2 mph /  5.1 km/h 19.3 mph /  31.1 km/h 44 % 0.0 in /  0 mm
17:32 31.1 °F /  -0.5 °C 17.4 °F /  -8.1 °C 1016.5 in /  34418.7 hPa ENE 3.2 mph /  5.1 km/h 11.3 mph /  18.2 km/h 44 % 0.0 in /  0 mm
17:37 31.3 °F /  -0.4 °C 17.6 °F /  -8 °C 1016.5 in /  34418.7 hPa East 3.2 mph /  5.1 km/h 12.9 mph /  20.8 km/h 44 % 0.0 in /  0 mm
17:42 31.2 °F /  -0.4 °C 17.5 °F /  -8.1 °C 1016.5 in /  34418.7 hPa NE 4.8 mph /  7.7 km/h 12.9 mph /  20.8 km/h 44 % 0.0 in /  0 mm
17:47 31.3 °F /  -0.4 °C 17.9 °F /  -7.8 °C 1016.1 in /  34405.1 hPa ENE 8.0 mph /  12.9 km/h 12.9 mph /  20.8 km/h 45 % 0.0 in /  0 mm
17:57 30.8 °F /  -0.7 °C 17.5 °F /  -8.1 °C 1016.1 in /  34405.1 hPa East 8.0 mph /  12.9 km/h 12.9 mph /  20.8 km/h 45 % 0.0 in /  0 mm
18:02 30.7 °F /  -0.7 °C 17.8 °F /  -7.9 °C 1016.1 in /  34405.1 hPa NE 11.3 mph /  18.2 km/h 12.9 mph /  20.8 km/h 46 % 0.0 in /  0 mm
18:07 30.6 °F /  -0.8 °C 17.7 °F /  -7.9 °C 1016.1 in /  34405.1 hPa ENE 9.7 mph /  15.6 km/h 12.9 mph /  20.8 km/h 46 % 0.0 in /  0 mm
18:12 30.4 °F /  -0.9 °C 17.5 °F /  -8.1 °C 1015.8 in /  34395 hPa NE 11.3 mph /  18.2 km/h 14.5 mph /  23.3 km/h 46 % 0.0 in /  0 mm
18:17 30.7 °F /  -0.7 °C 17.8 °F /  -7.9 °C 1015.8 in /  34395 hPa ENE 11.3 mph /  18.2 km/h 14.5 mph /  23.3 km/h 46 % 0.0 in /  0 mm
18:27 30.8 °F /  -0.7 °C 17.1 °F /  -8.3 °C 1015.5 in /  34384.8 hPa NE 3.2 mph /  5.1 km/h 14.5 mph /  23.3 km/h 44 % 0.0 in /  0 mm
18:32 30.9 °F /  -0.6 °C 17.2 °F /  -8.2 °C 1015.5 in /  34384.8 hPa NE 1.6 mph /  2.6 km/h 11.3 mph /  18.2 km/h 44 % 0.0 in /  0 mm
18:37 31.2 °F /  -0.4 °C 17.1 °F /  -8.3 °C 1015.1 in /  34371.3 hPa NE 3.2 mph /  5.1 km/h 9.7 mph /  15.6 km/h 43 % 0.0 in /  0 mm
18:42 31.3 °F /  -0.4 °C 17.2 °F /  -8.2 °C 1015.1 in /  34371.3 hPa NNE 6.4 mph /  10.3 km/h 12.9 mph /  20.8 km/h 43 % 0.0 in /  0 mm
18:47 31.4 °F /  -0.3 °C 17.3 °F /  -8.2 °C 1014.8 in /  34361.1 hPa East 8.0 mph /  12.9 km/h 17.7 mph /  28.5 km/h 43 % 0.0 in /  0 mm
18:52 31.2 °F /  -0.4 °C 17.5 °F /  -8.1 °C 1014.8 in /  34361.1 hPa East 6.4 mph /  10.3 km/h 17.7 mph /  28.5 km/h 44 % 0.0 in /  0 mm
19:02 31.4 °F /  -0.3 °C 17.7 °F /  -7.9 °C 1015.1 in /  34371.3 hPa NNE 6.4 mph /  10.3 km/h 17.7 mph /  28.5 km/h 44 % 0.0 in /  0 mm
19:07 31.4 °F /  -0.3 °C 17.7 °F /  -7.9 °C 1015.5 in /  34384.8 hPa ENE 3.2 mph /  5.1 km/h 16.1 mph /  25.9 km/h 44 % 0.0 in /  0 mm
19:12 31.1 °F /  -0.5 °C 17.4 °F /  -8.1 °C 1015.5 in /  34384.8 hPa NE 8.0 mph /  12.9 km/h 14.5 mph /  23.3 km/h 44 % 0.0 in /  0 mm
19:17 30.9 °F /  -0.6 °C 17.6 °F /  -8 °C 1015.5 in /  34384.8 hPa NNE 20.9 mph /  33.6 km/h 22.5 mph /  36.2 km/h 45 % 0.0 in /  0 mm
19:22 30.8 °F /  -0.7 °C 17.5 °F /  -8.1 °C 1015.5 in /  34384.8 hPa NE 8.0 mph /  12.9 km/h 24.1 mph /  38.8 km/h 45 % 0.0 in /  0 mm
19:27 30.7 °F /  -0.7 °C 17.8 °F /  -7.9 °C 1015.5 in /  34384.8 hPa NNE 16.1 mph /  25.9 km/h 24.1 mph /  38.8 km/h 46 % 0.0 in /  0 mm
19:32 30.3 °F /  -0.9 °C 17.4 °F /  -8.1 °C 1015.5 in /  34384.8 hPa NE 9.7 mph /  15.6 km/h 24.1 mph /  38.8 km/h 46 % 0.0 in /  0 mm
19:37 30.3 °F /  -0.9 °C 17.7 °F /  -7.9 °C 1015.5 in /  34384.8 hPa NNW 4.8 mph /  7.7 km/h 20.9 mph /  33.6 km/h 47 % 0.0 in /  0 mm
19:42 30.3 °F /  -0.9 °C 17.7 °F /  -7.9 °C 1015.5 in /  34384.8 hPa NNE 12.9 mph /  20.8 km/h 20.9 mph /  33.6 km/h 47 % 0.0 in /  0 mm
19:47 30.0 °F /  -1.1 °C 17.5 °F /  -8.1 °C 1015.5 in /  34384.8 hPa NNE 14.5 mph /  23.3 km/h 20.9 mph /  33.6 km/h 47 % 0.0 in /  0 mm
19:52 29.7 °F /  -1.3 °C 17.5 °F /  -8.1 °C 1015.1 in /  34371.3 hPa NE 20.9 mph /  33.6 km/h 20.9 mph /  33.6 km/h 48 % 0.0 in /  0 mm
19:57 29.6 °F /  -1.3 °C 17.8 °F /  -7.9 °C 1014.8 in /  34361.1 hPa NE 6.4 mph /  10.3 km/h 22.5 mph /  36.2 km/h 49 % 0.0 in /  0 mm
20:02 29.4 °F /  -1.4 °C 17.6 °F /  -8 °C 1015.1 in /  34371.3 hPa NNE 12.9 mph /  20.8 km/h 22.5 mph /  36.2 km/h 49 % 0.0 in /  0 mm
20:07 29.2 °F /  -1.6 °C 17.1 °F /  -8.3 °C 1015.1 in /  34371.3 hPa NE 12.9 mph /  20.8 km/h 22.5 mph /  36.2 km/h 48 % 0.0 in /  0 mm
20:12 29.2 °F /  -1.6 °C 17.4 °F /  -8.1 °C 1015.5 in /  34384.8 hPa ENE 1.6 mph /  2.6 km/h 17.7 mph /  28.5 km/h 49 % 0.0 in /  0 mm
20:17 29.1 °F /  -1.6 °C 17.3 °F /  -8.2 °C 1015.5 in /  34384.8 hPa NNW 6.4 mph /  10.3 km/h 17.7 mph /  28.5 km/h 49 % 0.0 in /  0 mm
20:22 29.1 °F /  -1.6 °C 17.3 °F /  -8.2 °C 1015.1 in /  34371.3 hPa NE 12.9 mph /  20.8 km/h 17.7 mph /  28.5 km/h 49 % 0.0 in /  0 mm
20:27 29.1 °F /  -1.6 °C 17.3 °F /  -8.2 °C 1015.1 in /  34371.3 hPa NE 4.8 mph /  7.7 km/h 16.1 mph /  25.9 km/h 49 % 0.0 in /  0 mm
20:32 29.1 °F /  -1.6 °C 17.3 °F /  -8.2 °C 1015.5 in /  34384.8 hPa NNE 14.5 mph /  23.3 km/h 16.1 mph /  25.9 km/h 49 % 0.0 in /  0 mm
20:37 29.1 °F /  -1.6 °C 17.3 °F /  -8.2 °C 1015.5 in /  34384.8 hPa NNE 4.8 mph /  7.7 km/h 16.1 mph /  25.9 km/h 49 % 0.0 in /  0 mm
20:42 28.9 °F /  -1.7 °C 17.1 °F /  -8.3 °C 1015.8 in /  34395 hPa North 3.2 mph /  5.1 km/h 16.1 mph /  25.9 km/h 49 % 0.0 in /  0 mm
20:47 28.8 °F /  -1.8 °C 17.0 °F /  -8.3 °C 1015.8 in /  34395 hPa NE 9.7 mph /  15.6 km/h 16.1 mph /  25.9 km/h 49 % 0.0 in /  0 mm
20:52 28.6 °F /  -1.9 °C 16.8 °F /  -8.4 °C 1015.8 in /  34395 hPa North 9.7 mph /  15.6 km/h 11.3 mph /  18.2 km/h 49 % 0.0 in /  0 mm
20:57 28.4 °F /  -2 °C 17.0 °F /  -8.3 °C 1015.8 in /  34395 hPa NNE 12.9 mph /  20.8 km/h 12.9 mph /  20.8 km/h 50 % 0.0 in /  0 mm
21:02 28.2 °F /  -2.1 °C 17.1 °F /  -8.3 °C 1015.8 in /  34395 hPa NNE 9.7 mph /  15.6 km/h 12.9 mph /  20.8 km/h 51 % 0.0 in /  0 mm
21:12 28.0 °F /  -2.2 °C 17.2 °F /  -8.2 °C 1015.8 in /  34395 hPa NNE 4.8 mph /  7.7 km/h 14.5 mph /  23.3 km/h 52 % 0.0 in /  0 mm
21:17 27.8 °F /  -2.3 °C 17.0 °F /  -8.3 °C 1016.1 in /  34405.1 hPa North 1.6 mph /  2.6 km/h 14.5 mph /  23.3 km/h 52 % 0.0 in /  0 mm
21:22 27.7 °F /  -2.4 °C 16.9 °F /  -8.4 °C 1016.1 in /  34405.1 hPa Calm   14.5 mph /  23.3 km/h 52 % 0.0 in /  0 mm
21:27 27.7 °F /  -2.4 °C 17.2 °F /  -8.2 °C 1016.5 in /  34418.7 hPa Calm   9.7 mph /  15.6 km/h 53 % 0.0 in /  0 mm
21:32 27.4 °F /  -2.6 °C 17.3 °F /  -8.2 °C 1016.5 in /  34418.7 hPa WNW 3.2 mph /  5.1 km/h 3.2 mph /  5.1 km/h 54 % 0.0 in /  0 mm
21:37 27.2 °F /  -2.7 °C 17.4 °F /  -8.1 °C 1016.5 in /  34418.7 hPa Calm   3.2 mph /  5.1 km/h 55 % 0.0 in /  0 mm
21:42 26.9 °F /  -2.8 °C 17.7 °F /  -7.9 °C 1017.5 in /  34452.6 hPa SW 17.7 mph /  28.5 km/h 17.7 mph /  28.5 km/h 57 % 0.0 in /  0 mm
21:47 25.8 °F /  -3.4 °C 15.8 °F /  -9 °C 1017.5 in /  34452.6 hPa SW 19.3 mph /  31.1 km/h 40.2 mph /  64.7 km/h 54 % 0.0 in /  0 mm
21:52 25.2 °F /  -3.8 °C 15.8 °F /  -9 °C 1017.8 in /  34462.7 hPa SW 11.3 mph /  18.2 km/h 40.2 mph /  64.7 km/h 56 % 0.0 in /  0 mm
21:57 24.6 °F /  -4.1 °C 15.5 °F /  -9.2 °C 1017.5 in /  34452.6 hPa SSW 8.0 mph /  12.9 km/h 40.2 mph /  64.7 km/h 57 % 0.0 in /  0 mm
22:02 24.3 °F /  -4.3 °C 15.5 °F /  -9.2 °C 1017.5 in /  34452.6 hPa SSW 3.2 mph /  5.1 km/h 40.2 mph /  64.7 km/h 58 % 0.0 in /  0 mm
22:07 24.3 °F /  -4.3 °C 15.0 °F /  -9.4 °C 1017.5 in /  34452.6 hPa SW 14.5 mph /  23.3 km/h 35.4 mph /  57 km/h 56 % 0.0 in /  0 mm
22:12 24.4 °F /  -4.2 °C 14.8 °F /  -9.6 °C 1017.5 in /  34452.6 hPa SSW 14.5 mph /  23.3 km/h 25.7 mph /  41.4 km/h 55 % 0.0 in /  0 mm
22:17 24.0 °F /  -4.4 °C 15.2 °F /  -9.3 °C 1017.5 in /  34452.6 hPa WSW 11.3 mph /  18.2 km/h 22.5 mph /  36.2 km/h 58 % 0.0 in /  0 mm
22:22 23.7 °F /  -4.6 °C 15.7 °F /  -9.1 °C 1017.5 in /  34452.6 hPa SW 6.4 mph /  10.3 km/h 22.5 mph /  36.2 km/h 61 % 0.0 in /  0 mm
22:27 23.4 °F /  -4.8 °C 15.7 °F /  -9.1 °C 1017.5 in /  34452.6 hPa SE 3.2 mph /  5.1 km/h 22.5 mph /  36.2 km/h 62 % 0.0 in /  0 mm
22:32 23.2 °F /  -4.9 °C 15.8 °F /  -9 °C 1017.5 in /  34452.6 hPa Calm   19.3 mph /  31.1 km/h 63 % 0.0 in /  0 mm
22:37 23.1 °F /  -4.9 °C 15.7 °F /  -9.1 °C 1017.2 in /  34442.4 hPa East 1.6 mph /  2.6 km/h 11.3 mph /  18.2 km/h 63 % 0.0 in /  0 mm
22:42 23.1 °F /  -4.9 °C 15.9 °F /  -8.9 °C 1017.2 in /  34442.4 hPa East 1.6 mph /  2.6 km/h 4.8 mph /  7.7 km/h 64 % 0.0 in /  0 mm
22:52 22.6 °F /  -5.2 °C 16.4 °F /  -8.7 °C 1017.2 in /  34442.4 hPa NE 3.2 mph /  5.1 km/h 4.8 mph /  7.7 km/h 68 % 0.0 in /  0 mm
22:57 22.1 °F /  -5.5 °C 16.8 °F /  -8.4 °C 1017.2 in /  34442.4 hPa ENE 8.0 mph /  12.9 km/h 8.0 mph /  12.9 km/h 72 % 0.0 in /  0 mm
23:02 21.5 °F /  -5.8 °C 16.9 °F /  -8.4 °C 1016.8 in /  34428.8 hPa NE 3.2 mph /  5.1 km/h 8.0 mph /  12.9 km/h 75 % 0.3 in /  7.62 mm
23:07 21.3 °F /  -5.9 °C 16.9 °F /  -8.4 °C 1017.2 in /  34442.4 hPa WSW 1.6 mph /  2.6 km/h 8.0 mph /  12.9 km/h 76 % 0.5 in /  12.7 mm
23:12 21.1 °F /  -6.1 °C 17.1 °F /  -8.3 °C 1017.2 in /  34442.4 hPa NW 1.6 mph /  2.6 km/h 8.0 mph /  12.9 km/h 78 % 0.5 in /  12.7 mm
23:17 20.8 °F /  -6.2 °C 17.6 °F /  -8 °C 1017.2 in /  34442.4 hPa NNW 4.8 mph /  7.7 km/h 4.8 mph /  7.7 km/h 82 % 0.8 in /  20.32 mm
23:22 20.5 °F /  -6.4 °C 17.3 °F /  -8.2 °C 1016.8 in /  34428.8 hPa WSW 4.8 mph /  7.7 km/h 6.4 mph /  10.3 km/h 82 % 1.0 in /  25.4 mm
23:27 20.4 °F /  -6.4 °C 17.2 °F /  -8.2 °C 1016.5 in /  34418.7 hPa North 1.6 mph /  2.6 km/h 6.4 mph /  10.3 km/h 82 % 1.3 in /  33.02 mm
23:32 20.3 °F /  -6.5 °C 17.7 °F /  -7.9 °C 1016.5 in /  34418.7 hPa NNE 1.6 mph /  2.6 km/h 9.7 mph /  15.6 km/h 85 % 1.3 in /  33.02 mm
23:37 20.0 °F /  -6.7 °C 17.2 °F /  -8.2 °C 1016.1 in /  34405.1 hPa NNE 3.2 mph /  5.1 km/h 9.7 mph /  15.6 km/h 84 % 1.5 in /  38.1 mm
23:42 20.1 °F /  -6.6 °C 17.5 °F /  -8.1 °C 1016.1 in /  34405.1 hPa Calm   9.7 mph /  15.6 km/h 85 % 1.5 in /  38.1 mm
23:47 19.9 °F /  -6.7 °C 17.7 °F /  -7.9 °C 1016.1 in /  34405.1 hPa Calm   8.0 mph /  12.9 km/h 87 % 1.5 in /  38.1 mm
23:52 19.8 °F /  -6.8 °C 17.6 °F /  -8 °C 1016.5 in /  34418.7 hPa Calm   8.0 mph /  12.9 km/h 87 % 1.5 in /  38.1 mm
23:57 19.7 °F /  -6.8 °C 17.8 °F /  -7.9 °C 1016.1 in /  34405.1 hPa ENE 1.6 mph /  2.6 km/h 4.8 mph /  7.7 km/h 89 % 1.5 in /  38.1 mm
Meteo18
Compliments of Weather Underground - 4 mb

Script developed by  Jim McMurry - jmcmurry@mwt.net Adapted for the template by  Wim van der Kuil - Leuven-Template.eu

You find our weather info also at:

European Weather Network

Weather Underground

Equipment we use:

Weather-station
Davis Vue

Weather-program
Meteobridge

Weather-server
Raspberry PI 2 B+

Provider
1 and 1

Davis Vue

Meteobridge

Raspberry PI 2 B+

1 and 1